sensor_id;sensor_type;location;lat;lon;timestamp;P1;durP1;ratioP1;P2;durP2;ratioP2
61523;SDS011;47393;38.758;-9.164;2022-12-18T00:00:17;121.97;;;80.07;;
61523;SDS011;47393;38.758;-9.164;2022-12-18T00:02:19;111.20;;;73.72;;
61523;SDS011;47393;38.758;-9.164;2022-12-18T00:04:21;116.45;;;74.32;;
61523;SDS011;47393;38.758;-9.164;2022-12-18T00:06:23;121.65;;;74.18;;
61523;SDS011;47393;38.758;-9.164;2022-12-18T00:08:25;105.00;;;69.75;;
61523;SDS011;47393;38.758;-9.164;2022-12-18T00:10:26;113.25;;;71.60;;
61523;SDS011;47393;38.758;-9.164;2022-12-18T00:12:28;116.50;;;74.63;;
61523;SDS011;47393;38.758;-9.164;2022-12-18T00:14:30;132.82;;;83.00;;
61523;SDS011;47393;38.758;-9.164;2022-12-18T00:16:31;138.25;;;80.97;;
61523;SDS011;47393;38.758;-9.164;2022-12-18T00:18:35;129.82;;;82.43;;
61523;SDS011;47393;38.758;-9.164;2022-12-18T00:20:36;134.55;;;83.85;;
61523;SDS011;47393;38.758;-9.164;2022-12-18T00:22:40;141.82;;;82.28;;
61523;SDS011;47393;38.758;-9.164;2022-12-18T00:24:41;121.90;;;77.47;;
61523;SDS011;47393;38.758;-9.164;2022-12-18T00:26:42;112.78;;;74.32;;
61523;SDS011;47393;38.758;-9.164;2022-12-18T00:28:43;112.18;;;72.00;;
61523;SDS011;47393;38.758;-9.164;2022-12-18T00:30:45;99.50;;;60.22;;
61523;SDS011;47393;38.758;-9.164;2022-12-18T00:32:46;113.43;;;68.72;;
61523;SDS011;47393;38.758;-9.164;2022-12-18T00:34:47;94.80;;;55.70;;
61523;SDS011;47393;38.758;-9.164;2022-12-18T00:36:49;95.38;;;57.25;;
61523;SDS011;47393;38.758;-9.164;2022-12-18T00:38:50;89.03;;;52.67;;
61523;SDS011;47393;38.758;-9.164;2022-12-18T00:40:51;98.88;;;56.58;;
61523;SDS011;47393;38.758;-9.164;2022-12-18T00:42:55;103.70;;;61.05;;
61523;SDS011;47393;38.758;-9.164;2022-12-18T00:44:56;111.70;;;68.25;;
61523;SDS011;47393;38.758;-9.164;2022-12-18T00:46:57;98.13;;;55.15;;
61523;SDS011;47393;38.758;-9.164;2022-12-18T00:48:58;122.97;;;57.72;;
61523;SDS011;47393;38.758;-9.164;2022-12-18T00:51:14;117.40;;;59.30;;
61523;SDS011;47393;38.758;-9.164;2022-12-18T00:53:26;121.75;;;62.38;;
61523;SDS011;47393;38.758;-9.164;2022-12-18T00:55:39;99.05;;;50.20;;
61523;SDS011;47393;38.758;-9.164;2022-12-18T00:57:44;110.40;;;58.22;;
61523;SDS011;47393;38.758;-9.164;2022-12-18T00:59:45;98.45;;;53.95;;
61523;SDS011;47393;38.758;-9.164;2022-12-18T01:01:46;102.95;;;56.40;;
61523;SDS011;47393;38.758;-9.164;2022-12-18T01:03:48;81.13;;;45.88;;
61523;SDS011;47393;38.758;-9.164;2022-12-18T01:05:50;89.78;;;45.40;;
61523;SDS011;47393;38.758;-9.164;2022-12-18T01:07:52;85.00;;;42.75;;
61523;SDS011;47393;38.758;-9.164;2022-12-18T01:09:56;102.03;;;45.58;;
61523;SDS011;47393;38.758;-9.164;2022-12-18T01:11:57;80.95;;;42.00;;
61523;SDS011;47393;38.758;-9.164;2022-12-18T01:14:01;80.47;;;45.35;;
61523;SDS011;47393;38.758;-9.164;2022-12-18T01:16:28;90.05;;;46.03;;
61523;SDS011;47393;38.758;-9.164;2022-12-18T01:18:41;85.10;;;45.15;;
61523;SDS011;47393;38.758;-9.164;2022-12-18T01:20:45;77.15;;;39.40;;
61523;SDS011;47393;38.758;-9.164;2022-12-18T01:22:46;78.15;;;43.70;;
61523;SDS011;47393;38.758;-9.164;2022-12-18T01:24:47;101.32;;;49.08;;
61523;SDS011;47393;38.758;-9.164;2022-12-18T01:26:48;96.65;;;46.00;;
61523;SDS011;47393;38.758;-9.164;2022-12-18T01:28:49;93.07;;;48.33;;
61523;SDS011;47393;38.758;-9.164;2022-12-18T01:30:50;110.10;;;50.45;;
61523;SDS011;47393;38.758;-9.164;2022-12-18T01:32:53;92.10;;;45.33;;
61523;SDS011;47393;38.758;-9.164;2022-12-18T01:34:54;101.63;;;44.67;;
61523;SDS011;47393;38.758;-9.164;2022-12-18T01:36:58;89.22;;;44.75;;
61523;SDS011;47393;38.758;-9.164;2022-12-18T01:48:12;83.65;;;42.13;;
61523;SDS011;47393;38.758;-9.164;2022-12-18T01:52:17;100.55;;;42.83;;
61523;SDS011;47393;38.758;-9.164;2022-12-18T01:54:19;76.63;;;38.75;;
61523;SDS011;47393;38.758;-9.164;2022-12-18T01:56:20;77.72;;;39.17;;
61523;SDS011;47393;38.758;-9.164;2022-12-18T01:58:26;73.68;;;38.90;;
61523;SDS011;47393;38.758;-9.164;2022-12-18T02:00:45;81.32;;;38.22;;
61523;SDS011;47393;38.758;-9.164;2022-12-18T02:02:47;79.13;;;34.92;;
61523;SDS011;47393;38.758;-9.164;2022-12-18T02:04:54;74.65;;;36.60;;
61523;SDS011;47393;38.758;-9.164;2022-12-18T02:07:03;70.28;;;32.67;;
61523;SDS011;47393;38.758;-9.164;2022-12-18T02:09:17;77.15;;;35.88;;
61523;SDS011;47393;38.758;-9.164;2022-12-18T02:11:52;76.80;;;34.85;;
61523;SDS011;47393;38.758;-9.164;2022-12-18T02:21:04;92.65;;;33.25;;
61523;SDS011;47393;38.758;-9.164;2022-12-18T02:26:36;102.82;;;37.75;;
61523;SDS011;47393;38.758;-9.164;2022-12-18T02:28:47;82.70;;;35.93;;
61523;SDS011;47393;38.758;-9.164;2022-12-18T02:31:03;86.75;;;37.63;;
61523;SDS011;47393;38.758;-9.164;2022-12-18T02:33:07;78.68;;;34.85;;
61523;SDS011;47393;38.758;-9.164;2022-12-18T02:35:13;79.78;;;32.72;;
61523;SDS011;47393;38.758;-9.164;2022-12-18T02:37:28;69.50;;;33.85;;
61523;SDS011;47393;38.758;-9.164;2022-12-18T02:39:37;92.63;;;38.78;;
61523;SDS011;47393;38.758;-9.164;2022-12-18T02:41:46;87.60;;;32.75;;
61523;SDS011;47393;38.758;-9.164;2022-12-18T02:44:12;80.72;;;32.45;;
61523;SDS011;47393;38.758;-9.164;2022-12-18T02:48:56;84.40;;;36.15;;
61523;SDS011;47393;38.758;-9.164;2022-12-18T02:51:18;95.30;;;38.50;;
61523;SDS011;47393;38.758;-9.164;2022-12-18T02:53:36;94.90;;;41.25;;
61523;SDS011;47393;38.758;-9.164;2022-12-18T02:55:53;108.28;;;43.13;;
61523;SDS011;47393;38.758;-9.164;2022-12-18T03:01:26;101.70;;;42.55;;
61523;SDS011;47393;38.758;-9.164;2022-12-18T03:03:29;121.53;;;45.15;;
61523;SDS011;47393;38.758;-9.164;2022-12-18T03:05:44;114.65;;;44.47;;
61523;SDS011;47393;38.758;-9.164;2022-12-18T03:07:55;107.57;;;39.63;;
61523;SDS011;47393;38.758;-9.164;2022-12-18T03:10:16;93.68;;;37.80;;
61523;SDS011;47393;38.758;-9.164;2022-12-18T03:12:35;88.07;;;35.20;;
61523;SDS011;47393;38.758;-9.164;2022-12-18T03:17:59;86.90;;;35.28;;
61523;SDS011;47393;38.758;-9.164;2022-12-18T03:20:23;88.18;;;30.33;;
61523;SDS011;47393;38.758;-9.164;2022-12-18T03:22:40;84.97;;;35.13;;
61523;SDS011;47393;38.758;-9.164;2022-12-18T03:24:48;105.95;;;41.63;;
61523;SDS011;47393;38.758;-9.164;2022-12-18T03:26:54;123.27;;;42.90;;
61523;SDS011;47393;38.758;-9.164;2022-12-18T03:29:03;113.63;;;44.47;;
61523;SDS011;47393;38.758;-9.164;2022-12-18T03:31:10;102.28;;;45.97;;
61523;SDS011;47393;38.758;-9.164;2022-12-18T03:35:21;108.10;;;44.60;;
61523;SDS011;47393;38.758;-9.164;2022-12-18T03:37:32;111.75;;;44.85;;
61523;SDS011;47393;38.758;-9.164;2022-12-18T03:39:37;104.15;;;44.28;;
61523;SDS011;47393;38.758;-9.164;2022-12-18T03:41:44;112.18;;;45.50;;
61523;SDS011;47393;38.758;-9.164;2022-12-18T03:49:02;130.20;;;47.40;;
61523;SDS011;47393;38.758;-9.164;2022-12-18T03:54:18;116.32;;;50.78;;
61523;SDS011;47393;38.758;-9.164;2022-12-18T03:56:32;110.55;;;49.15;;
61523;SDS011;47393;38.758;-9.164;2022-12-18T03:58:41;124.20;;;55.00;;
61523;SDS011;47393;38.758;-9.164;2022-12-18T04:00:53;145.55;;;67.43;;
61523;SDS011;47393;38.758;-9.164;2022-12-18T04:02:57;154.73;;;72.45;;
61523;SDS011;47393;38.758;-9.164;2022-12-18T04:05:09;159.88;;;73.25;;
61523;SDS011;47393;38.758;-9.164;2022-12-18T04:07:14;158.63;;;77.47;;
61523;SDS011;47393;38.758;-9.164;2022-12-18T04:09:19;161.35;;;80.57;;
61523;SDS011;47393;38.758;-9.164;2022-12-18T04:11:22;168.70;;;85.03;;
61523;SDS011;47393;38.758;-9.164;2022-12-18T04:13:33;169.60;;;83.75;;
61523;SDS011;47393;38.758;-9.164;2022-12-18T04:15:44;185.82;;;85.70;;
61523;SDS011;47393;38.758;-9.164;2022-12-18T04:17:53;164.75;;;85.72;;
61523;SDS011;47393;38.758;-9.164;2022-12-18T04:19:57;152.50;;;83.47;;
61523;SDS011;47393;38.758;-9.164;2022-12-18T04:21:58;179.73;;;88.65;;
61523;SDS011;47393;38.758;-9.164;2022-12-18T04:24:07;205.93;;;92.13;;
61523;SDS011;47393;38.758;-9.164;2022-12-18T04:26:11;202.63;;;93.47;;
61523;SDS011;47393;38.758;-9.164;2022-12-18T04:28:24;243.10;;;98.10;;
61523;SDS011;47393;38.758;-9.164;2022-12-18T04:30:25;224.40;;;97.15;;
61523;SDS011;47393;38.758;-9.164;2022-12-18T04:32:26;1071.80;;;157.57;;
61523;SDS011;47393;38.758;-9.164;2022-12-18T04:34:27;195.23;;;88.90;;
61523;SDS011;47393;38.758;-9.164;2022-12-18T04:36:29;231.32;;;99.28;;
61523;SDS011;47393;38.758;-9.164;2022-12-18T04:38:33;184.30;;;87.45;;
61523;SDS011;47393;38.758;-9.164;2022-12-18T04:40:40;192.15;;;88.03;;
61523;SDS011;47393;38.758;-9.164;2022-12-18T04:42:49;201.55;;;93.65;;
61523;SDS011;47393;38.758;-9.164;2022-12-18T04:44:50;172.93;;;85.53;;
61523;SDS011;47393;38.758;-9.164;2022-12-18T04:46:50;170.73;;;82.45;;
61523;SDS011;47393;38.758;-9.164;2022-12-18T04:49:01;205.45;;;90.25;;
61523;SDS011;47393;38.758;-9.164;2022-12-18T04:51:05;171.13;;;83.13;;
61523;SDS011;47393;38.758;-9.164;2022-12-18T04:53:07;195.38;;;87.25;;
61523;SDS011;47393;38.758;-9.164;2022-12-18T04:55:08;163.88;;;82.75;;
61523;SDS011;47393;38.758;-9.164;2022-12-18T04:57:11;198.38;;;88.80;;
61523;SDS011;47393;38.758;-9.164;2022-12-18T04:59:12;204.68;;;88.00;;
61523;SDS011;47393;38.758;-9.164;2022-12-18T05:01:15;160.93;;;79.03;;
61523;SDS011;47393;38.758;-9.164;2022-12-18T05:03:16;166.40;;;79.60;;
61523;SDS011;47393;38.758;-9.164;2022-12-18T05:05:17;195.63;;;88.03;;
61523;SDS011;47393;38.758;-9.164;2022-12-18T05:07:21;163.35;;;80.13;;
61523;SDS011;47393;38.758;-9.164;2022-12-18T05:09:37;192.13;;;87.88;;
61523;SDS011;47393;38.758;-9.164;2022-12-18T05:11:38;190.00;;;90.47;;
61523;SDS011;47393;38.758;-9.164;2022-12-18T05:13:45;171.00;;;80.32;;
61523;SDS011;47393;38.758;-9.164;2022-12-18T05:15:55;192.25;;;92.50;;
61523;SDS011;47393;38.758;-9.164;2022-12-18T05:18:09;202.65;;;90.97;;
61523;SDS011;47393;38.758;-9.164;2022-12-18T05:20:21;940.92;;;140.30;;
61523;SDS011;47393;38.758;-9.164;2022-12-18T05:22:31;261.33;;;102.13;;
61523;SDS011;47393;38.758;-9.164;2022-12-18T05:24:41;187.68;;;90.15;;
61523;SDS011;47393;38.758;-9.164;2022-12-18T05:26:45;199.95;;;89.35;;
61523;SDS011;47393;38.758;-9.164;2022-12-18T05:28:46;218.02;;;94.95;;
61523;SDS011;47393;38.758;-9.164;2022-12-18T05:30:48;650.55;;;128.55;;
61523;SDS011;47393;38.758;-9.164;2022-12-18T05:32:50;192.88;;;90.22;;
61523;SDS011;47393;38.758;-9.164;2022-12-18T05:34:51;257.38;;;102.90;;
61523;SDS011;47393;38.758;-9.164;2022-12-18T05:36:52;197.10;;;95.47;;
61523;SDS011;47393;38.758;-9.164;2022-12-18T05:38:52;171.18;;;90.95;;
61523;SDS011;47393;38.758;-9.164;2022-12-18T05:40:53;182.63;;;94.45;;
61523;SDS011;47393;38.758;-9.164;2022-12-18T05:42:54;159.77;;;83.40;;
61523;SDS011;47393;38.758;-9.164;2022-12-18T05:44:55;202.50;;;95.68;;
61523;SDS011;47393;38.758;-9.164;2022-12-18T05:47:05;217.27;;;98.47;;
61523;SDS011;47393;38.758;-9.164;2022-12-18T05:51:21;153.02;;;78.50;;
61523;SDS011;47393;38.758;-9.164;2022-12-18T05:53:35;152.57;;;74.53;;
61523;SDS011;47393;38.758;-9.164;2022-12-18T05:55:41;167.80;;;79.13;;
61523;SDS011;47393;38.758;-9.164;2022-12-18T05:57:42;141.85;;;73.13;;
61523;SDS011;47393;38.758;-9.164;2022-12-18T05:59:43;128.20;;;73.32;;
61523;SDS011;47393;38.758;-9.164;2022-12-18T06:01:44;147.25;;;74.55;;
61523;SDS011;47393;38.758;-9.164;2022-12-18T06:03:46;172.70;;;81.22;;
61523;SDS011;47393;38.758;-9.164;2022-12-18T06:05:56;143.95;;;77.20;;
61523;SDS011;47393;38.758;-9.164;2022-12-18T06:07:56;143.80;;;74.13;;
61523;SDS011;47393;38.758;-9.164;2022-12-18T06:10:03;136.65;;;69.75;;
61523;SDS011;47393;38.758;-9.164;2022-12-18T06:12:10;141.40;;;72.70;;
61523;SDS011;47393;38.758;-9.164;2022-12-18T06:14:11;128.73;;;69.30;;
61523;SDS011;47393;38.758;-9.164;2022-12-18T06:16:33;142.18;;;71.65;;
61523;SDS011;47393;38.758;-9.164;2022-12-18T06:18:36;127.45;;;67.50;;
61523;SDS011;47393;38.758;-9.164;2022-12-18T06:20:40;130.82;;;65.97;;
61523;SDS011;47393;38.758;-9.164;2022-12-18T06:22:41;133.70;;;69.60;;
61523;SDS011;47393;38.758;-9.164;2022-12-18T06:24:45;141.52;;;71.63;;
61523;SDS011;47393;38.758;-9.164;2022-12-18T06:26:46;141.02;;;72.55;;
61523;SDS011;47393;38.758;-9.164;2022-12-18T06:28:47;134.13;;;69.68;;
61523;SDS011;47393;38.758;-9.164;2022-12-18T06:30:48;120.28;;;64.50;;
61523;SDS011;47393;38.758;-9.164;2022-12-18T06:32:50;152.25;;;72.72;;
61523;SDS011;47393;38.758;-9.164;2022-12-18T06:34:51;122.35;;;63.15;;
61523;SDS011;47393;38.758;-9.164;2022-12-18T06:36:52;127.18;;;63.40;;
61523;SDS011;47393;38.758;-9.164;2022-12-18T06:38:53;101.45;;;56.15;;
61523;SDS011;47393;38.758;-9.164;2022-12-18T06:41:00;112.10;;;57.50;;
61523;SDS011;47393;38.758;-9.164;2022-12-18T06:43:00;116.90;;;58.83;;
61523;SDS011;47393;38.758;-9.164;2022-12-18T06:45:01;106.60;;;55.85;;
61523;SDS011;47393;38.758;-9.164;2022-12-18T06:47:02;107.50;;;51.67;;
61523;SDS011;47393;38.758;-9.164;2022-12-18T06:49:03;111.97;;;56.65;;
61523;SDS011;47393;38.758;-9.164;2022-12-18T06:51:04;106.97;;;54.00;;
61523;SDS011;47393;38.758;-9.164;2022-12-18T06:53:20;121.45;;;58.15;;
61523;SDS011;47393;38.758;-9.164;2022-12-18T06:55:36;114.90;;;57.53;;
61523;SDS011;47393;38.758;-9.164;2022-12-18T06:57:37;99.90;;;51.90;;
61523;SDS011;47393;38.758;-9.164;2022-12-18T06:59:38;101.05;;;51.03;;
61523;SDS011;47393;38.758;-9.164;2022-12-18T07:01:39;108.72;;;53.75;;
61523;SDS011;47393;38.758;-9.164;2022-12-18T07:03:41;98.45;;;51.97;;
61523;SDS011;47393;38.758;-9.164;2022-12-18T07:05:42;86.65;;;49.65;;
61523;SDS011;47393;38.758;-9.164;2022-12-18T07:07:43;91.63;;;49.72;;
61523;SDS011;47393;38.758;-9.164;2022-12-18T07:09:47;96.82;;;50.97;;
61523;SDS011;47393;38.758;-9.164;2022-12-18T07:11:57;99.95;;;49.20;;
61523;SDS011;47393;38.758;-9.164;2022-12-18T07:13:58;90.10;;;48.60;;
61523;SDS011;47393;38.758;-9.164;2022-12-18T07:16:12;101.78;;;49.45;;
61523;SDS011;47393;38.758;-9.164;2022-12-18T07:18:16;96.38;;;47.75;;
61523;SDS011;47393;38.758;-9.164;2022-12-18T07:20:17;88.88;;;48.20;;
61523;SDS011;47393;38.758;-9.164;2022-12-18T07:22:24;93.75;;;49.10;;
61523;SDS011;47393;38.758;-9.164;2022-12-18T07:24:26;90.68;;;48.45;;
61523;SDS011;47393;38.758;-9.164;2022-12-18T07:26:27;99.38;;;52.25;;
61523;SDS011;47393;38.758;-9.164;2022-12-18T07:28:28;100.32;;;50.95;;
61523;SDS011;47393;38.758;-9.164;2022-12-18T07:30:37;111.47;;;53.50;;
61523;SDS011;47393;38.758;-9.164;2022-12-18T07:32:38;88.43;;;49.45;;
61523;SDS011;47393;38.758;-9.164;2022-12-18T07:34:39;105.13;;;50.85;;
61523;SDS011;47393;38.758;-9.164;2022-12-18T07:36:40;98.13;;;50.22;;
61523;SDS011;47393;38.758;-9.164;2022-12-18T07:38:41;97.22;;;51.65;;
61523;SDS011;47393;38.758;-9.164;2022-12-18T07:40:42;103.72;;;52.67;;
61523;SDS011;47393;38.758;-9.164;2022-12-18T07:42:43;101.20;;;53.42;;
61523;SDS011;47393;38.758;-9.164;2022-12-18T07:44:44;97.03;;;51.80;;
61523;SDS011;47393;38.758;-9.164;2022-12-18T07:46:46;102.55;;;53.20;;
61523;SDS011;47393;38.758;-9.164;2022-12-18T07:48:47;96.00;;;49.75;;
61523;SDS011;47393;38.758;-9.164;2022-12-18T07:50:48;97.15;;;50.72;;
61523;SDS011;47393;38.758;-9.164;2022-12-18T07:52:52;96.28;;;47.88;;
61523;SDS011;47393;38.758;-9.164;2022-12-18T07:54:53;94.22;;;49.17;;
61523;SDS011;47393;38.758;-9.164;2022-12-18T07:56:54;101.68;;;49.67;;
61523;SDS011;47393;38.758;-9.164;2022-12-18T07:58:55;98.60;;;49.08;;
61523;SDS011;47393;38.758;-9.164;2022-12-18T08:01:10;92.47;;;49.47;;
61523;SDS011;47393;38.758;-9.164;2022-12-18T08:03:20;97.97;;;46.95;;
61523;SDS011;47393;38.758;-9.164;2022-12-18T08:05:21;105.80;;;45.85;;
61523;SDS011;47393;38.758;-9.164;2022-12-18T08:07:22;89.97;;;45.95;;
61523;SDS011;47393;38.758;-9.164;2022-12-18T08:09:35;96.35;;;48.72;;
61523;SDS011;47393;38.758;-9.164;2022-12-18T08:11:39;100.38;;;46.83;;
61523;SDS011;47393;38.758;-9.164;2022-12-18T08:13:40;100.28;;;47.60;;
61523;SDS011;47393;38.758;-9.164;2022-12-18T08:15:41;82.85;;;46.55;;
61523;SDS011;47393;38.758;-9.164;2022-12-18T08:17:45;97.22;;;47.72;;
61523;SDS011;47393;38.758;-9.164;2022-12-18T08:19:46;95.35;;;45.15;;
61523;SDS011;47393;38.758;-9.164;2022-12-18T08:25:05;91.07;;;46.13;;
61523;SDS011;47393;38.758;-9.164;2022-12-18T08:27:13;83.53;;;45.65;;
61523;SDS011;47393;38.758;-9.164;2022-12-18T08:29:14;89.13;;;45.90;;
61523;SDS011;47393;38.758;-9.164;2022-12-18T08:31:15;83.80;;;45.05;;
61523;SDS011;47393;38.758;-9.164;2022-12-18T08:33:16;93.10;;;47.10;;
61523;SDS011;47393;38.758;-9.164;2022-12-18T08:35:16;78.53;;;43.88;;
61523;SDS011;47393;38.758;-9.164;2022-12-18T08:37:20;84.93;;;41.85;;
61523;SDS011;47393;38.758;-9.164;2022-12-18T08:41:43;78.43;;;40.60;;
61523;SDS011;47393;38.758;-9.164;2022-12-18T08:49:59;91.78;;;40.80;;
61523;SDS011;47393;38.758;-9.164;2022-12-18T08:52:01;78.97;;;40.45;;
61523;SDS011;47393;38.758;-9.164;2022-12-18T08:54:03;70.70;;;36.10;;
61523;SDS011;47393;38.758;-9.164;2022-12-18T08:56:08;65.47;;;33.22;;
61523;SDS011;47393;38.758;-9.164;2022-12-18T08:58:12;68.38;;;33.47;;
61523;SDS011;47393;38.758;-9.164;2022-12-18T09:00:13;65.90;;;30.70;;
61523;SDS011;47393;38.758;-9.164;2022-12-18T09:02:14;55.67;;;30.23;;
61523;SDS011;47393;38.758;-9.164;2022-12-18T09:04:18;60.60;;;31.13;;
61523;SDS011;47393;38.758;-9.164;2022-12-18T09:06:19;57.08;;;30.58;;
61523;SDS011;47393;38.758;-9.164;2022-12-18T09:08:22;55.80;;;29.85;;
61523;SDS011;47393;38.758;-9.164;2022-12-18T09:10:40;50.30;;;27.55;;
61523;SDS011;47393;38.758;-9.164;2022-12-18T09:12:45;55.42;;;28.83;;
61523;SDS011;47393;38.758;-9.164;2022-12-18T09:14:49;55.78;;;26.38;;
61523;SDS011;47393;38.758;-9.164;2022-12-18T09:16:54;52.13;;;27.98;;
61523;SDS011;47393;38.758;-9.164;2022-12-18T09:19:04;46.80;;;24.90;;
61523;SDS011;47393;38.758;-9.164;2022-12-18T09:21:09;59.40;;;26.50;;
61523;SDS011;47393;38.758;-9.164;2022-12-18T09:23:20;53.67;;;23.98;;
61523;SDS011;47393;38.758;-9.164;2022-12-18T09:25:24;49.20;;;22.90;;
61523;SDS011;47393;38.758;-9.164;2022-12-18T09:27:25;50.83;;;23.05;;
61523;SDS011;47393;38.758;-9.164;2022-12-18T09:29:32;43.47;;;20.77;;
61523;SDS011;47393;38.758;-9.164;2022-12-18T09:31:36;46.00;;;21.40;;
61523;SDS011;47393;38.758;-9.164;2022-12-18T09:33:39;42.05;;;18.65;;
61523;SDS011;47393;38.758;-9.164;2022-12-18T09:35:40;43.10;;;19.90;;
61523;SDS011;47393;38.758;-9.164;2022-12-18T09:37:44;34.17;;;18.80;;
61523;SDS011;47393;38.758;-9.164;2022-12-18T09:39:45;35.80;;;19.98;;
61523;SDS011;47393;38.758;-9.164;2022-12-18T09:41:52;39.40;;;18.85;;
61523;SDS011;47393;38.758;-9.164;2022-12-18T09:46:24;34.85;;;17.45;;
61523;SDS011;47393;38.758;-9.164;2022-12-18T09:48:34;30.75;;;18.20;;
61523;SDS011;47393;38.758;-9.164;2022-12-18T09:50:53;37.80;;;17.75;;
61523;SDS011;47393;38.758;-9.164;2022-12-18T09:53:00;40.15;;;18.08;;
61523;SDS011;47393;38.758;-9.164;2022-12-18T09:57:20;40.13;;;18.52;;
61523;SDS011;47393;38.758;-9.164;2022-12-18T10:01:31;33.25;;;16.58;;
61523;SDS011;47393;38.758;-9.164;2022-12-18T10:03:39;41.42;;;17.42;;
61523;SDS011;47393;38.758;-9.164;2022-12-18T10:05:42;39.38;;;18.17;;
61523;SDS011;47393;38.758;-9.164;2022-12-18T10:10:32;41.20;;;17.00;;
61523;SDS011;47393;38.758;-9.164;2022-12-18T10:14:52;39.95;;;17.17;;
61523;SDS011;47393;38.758;-9.164;2022-12-18T10:17:03;40.70;;;18.02;;
61523;SDS011;47393;38.758;-9.164;2022-12-18T10:21:51;35.38;;;16.45;;
61523;SDS011;47393;38.758;-9.164;2022-12-18T10:24:10;33.72;;;14.45;;
61523;SDS011;47393;38.758;-9.164;2022-12-18T10:26:18;30.13;;;14.53;;
61523;SDS011;47393;38.758;-9.164;2022-12-18T10:28:19;38.25;;;16.35;;
61523;SDS011;47393;38.758;-9.164;2022-12-18T10:30:22;31.33;;;14.63;;
61523;SDS011;47393;38.758;-9.164;2022-12-18T10:32:25;25.17;;;14.05;;
61523;SDS011;47393;38.758;-9.164;2022-12-18T10:34:28;33.72;;;15.75;;
61523;SDS011;47393;38.758;-9.164;2022-12-18T10:36:35;30.88;;;15.73;;
61523;SDS011;47393;38.758;-9.164;2022-12-18T10:38:36;29.80;;;16.27;;
61523;SDS011;47393;38.758;-9.164;2022-12-18T10:43:10;29.73;;;15.60;;
61523;SDS011;47393;38.758;-9.164;2022-12-18T10:45:16;29.10;;;15.25;;
61523;SDS011;47393;38.758;-9.164;2022-12-18T10:47:20;26.15;;;13.98;;
61523;SDS011;47393;38.758;-9.164;2022-12-18T10:49:33;22.40;;;12.63;;
61523;SDS011;47393;38.758;-9.164;2022-12-18T10:51:36;28.02;;;14.80;;
61523;SDS011;47393;38.758;-9.164;2022-12-18T10:53:41;27.10;;;14.18;;
61523;SDS011;47393;38.758;-9.164;2022-12-18T10:55:44;29.33;;;13.32;;
61523;SDS011;47393;38.758;-9.164;2022-12-18T10:57:47;24.63;;;14.27;;
61523;SDS011;47393;38.758;-9.164;2022-12-18T10:59:55;19.88;;;12.73;;
61523;SDS011;47393;38.758;-9.164;2022-12-18T11:01:58;27.35;;;13.80;;
61523;SDS011;47393;38.758;-9.164;2022-12-18T11:04:21;25.67;;;12.32;;
61523;SDS011;47393;38.758;-9.164;2022-12-18T11:06:28;26.40;;;13.20;;
61523;SDS011;47393;38.758;-9.164;2022-12-18T11:08:59;23.42;;;12.90;;
61523;SDS011;47393;38.758;-9.164;2022-12-18T11:11:02;27.38;;;13.15;;
61523;SDS011;47393;38.758;-9.164;2022-12-18T11:13:11;23.88;;;12.63;;
61523;SDS011;47393;38.758;-9.164;2022-12-18T11:15:24;22.85;;;11.63;;
61523;SDS011;47393;38.758;-9.164;2022-12-18T11:17:33;21.38;;;11.50;;
61523;SDS011;47393;38.758;-9.164;2022-12-18T11:19:39;22.73;;;9.88;;
61523;SDS011;47393;38.758;-9.164;2022-12-18T11:21:41;20.60;;;10.57;;
61523;SDS011;47393;38.758;-9.164;2022-12-18T11:23:50;20.27;;;11.43;;
61523;SDS011;47393;38.758;-9.164;2022-12-18T11:25:54;24.88;;;11.57;;
61523;SDS011;47393;38.758;-9.164;2022-12-18T11:28:01;19.20;;;10.73;;
61523;SDS011;47393;38.758;-9.164;2022-12-18T11:30:09;24.25;;;12.25;;
61523;SDS011;47393;38.758;-9.164;2022-12-18T11:34:38;24.92;;;12.18;;
61523;SDS011;47393;38.758;-9.164;2022-12-18T11:36:45;22.63;;;12.00;;
61523;SDS011;47393;38.758;-9.164;2022-12-18T11:38:48;21.10;;;12.18;;
61523;SDS011;47393;38.758;-9.164;2022-12-18T11:40:59;22.60;;;12.98;;
61523;SDS011;47393;38.758;-9.164;2022-12-18T11:43:25;24.10;;;13.95;;
61523;SDS011;47393;38.758;-9.164;2022-12-18T11:48:14;23.23;;;15.07;;
61523;SDS011;47393;38.758;-9.164;2022-12-18T11:53:00;22.30;;;14.40;;
61523;SDS011;47393;38.758;-9.164;2022-12-18T11:55:15;20.15;;;12.60;;
61523;SDS011;47393;38.758;-9.164;2022-12-18T12:00:15;26.02;;;12.32;;
61523;SDS011;47393;38.758;-9.164;2022-12-18T12:02:29;25.35;;;12.43;;
61523;SDS011;47393;38.758;-9.164;2022-12-18T12:06:57;31.67;;;11.95;;
61523;SDS011;47393;38.758;-9.164;2022-12-18T12:16:46;16.38;;;9.00;;
61523;SDS011;47393;38.758;-9.164;2022-12-18T12:21:35;18.60;;;9.25;;
61523;SDS011;47393;38.758;-9.164;2022-12-18T12:23:42;20.02;;;10.27;;
61523;SDS011;47393;38.758;-9.164;2022-12-18T12:25:55;15.68;;;8.98;;
61523;SDS011;47393;38.758;-9.164;2022-12-18T12:28:15;22.70;;;9.05;;
61523;SDS011;47393;38.758;-9.164;2022-12-18T12:33:29;15.20;;;9.30;;
61523;SDS011;47393;38.758;-9.164;2022-12-18T12:35:56;20.75;;;10.18;;
61523;SDS011;47393;38.758;-9.164;2022-12-18T12:38:11;22.80;;;9.50;;
61523;SDS011;47393;38.758;-9.164;2022-12-18T12:40:23;25.13;;;10.35;;
61523;SDS011;47393;38.758;-9.164;2022-12-18T12:45:05;19.45;;;9.23;;
61523;SDS011;47393;38.758;-9.164;2022-12-18T12:47:18;12.93;;;8.60;;
61523;SDS011;47393;38.758;-9.164;2022-12-18T12:49:26;19.33;;;10.00;;
61523;SDS011;47393;38.758;-9.164;2022-12-18T12:51:33;23.08;;;11.15;;
61523;SDS011;47393;38.758;-9.164;2022-12-18T12:53:37;19.17;;;10.13;;
61523;SDS011;47393;38.758;-9.164;2022-12-18T12:55:39;17.95;;;10.13;;
61523;SDS011;47393;38.758;-9.164;2022-12-18T12:57:46;18.63;;;9.95;;
61523;SDS011;47393;38.758;-9.164;2022-12-18T13:00:11;17.27;;;10.27;;
61523;SDS011;47393;38.758;-9.164;2022-12-18T13:06:57;22.02;;;10.50;;
61523;SDS011;47393;38.758;-9.164;2022-12-18T13:09:04;24.35;;;10.27;;
61523;SDS011;47393;38.758;-9.164;2022-12-18T13:11:12;19.50;;;9.90;;
61523;SDS011;47393;38.758;-9.164;2022-12-18T13:13:56;17.88;;;10.68;;
61523;SDS011;47393;38.758;-9.164;2022-12-18T13:16:04;21.58;;;12.00;;
61523;SDS011;47393;38.758;-9.164;2022-12-18T13:18:11;24.08;;;10.27;;
61523;SDS011;47393;38.758;-9.164;2022-12-18T13:20:15;22.25;;;10.45;;
61523;SDS011;47393;38.758;-9.164;2022-12-18T13:22:28;15.90;;;9.55;;
61523;SDS011;47393;38.758;-9.164;2022-12-18T13:24:51;21.15;;;10.82;;
61523;SDS011;47393;38.758;-9.164;2022-12-18T13:26:53;14.27;;;9.88;;
61523;SDS011;47393;38.758;-9.164;2022-12-18T13:28:54;12.60;;;10.07;;
61523;SDS011;47393;38.758;-9.164;2022-12-18T13:30:56;15.90;;;9.35;;
61523;SDS011;47393;38.758;-9.164;2022-12-18T13:39:57;22.45;;;10.63;;
61523;SDS011;47393;38.758;-9.164;2022-12-18T13:44:12;14.35;;;9.55;;
61523;SDS011;47393;38.758;-9.164;2022-12-18T13:48:36;21.33;;;10.15;;
61523;SDS011;47393;38.758;-9.164;2022-12-18T13:50:38;13.65;;;9.43;;
61523;SDS011;47393;38.758;-9.164;2022-12-18T13:52:40;20.58;;;10.95;;
61523;SDS011;47393;38.758;-9.164;2022-12-18T13:54:56;14.23;;;9.38;;
61523;SDS011;47393;38.758;-9.164;2022-12-18T13:57:01;24.02;;;11.88;;
61523;SDS011;47393;38.758;-9.164;2022-12-18T14:01:23;21.98;;;10.23;;